Time;durP1;ratioP1;P1;durP2;ratioP2;P2;SDS_P1;SDS_P2;PMS_P1;PMS_P2;Temp;Humidity;BMP_temperature;BMP_pressure;BME280_temperature;BME280_humidity;BME280_pressure;Samples;Min_cycle;Max_cycle;Signal;HPM_P1;HPM_P2
2021/12/11 00:02:01;;;;;;;;;;;23.40;44.00;;;;;;5055412;28;19916;-58
2021/12/11 00:04:31;;;;;;;;;;;23.40;44.00;;;;;;5055252;28;19913;-58
2021/12/11 00:06:58;;;;;;;;;;;23.40;44.00;;;;;;5037531;28;19909;-59
2021/12/11 00:09:23;;;;;;;;;;;23.40;44.00;;;;;;5054686;28;19913;-59
2021/12/11 00:11:53;;;;;;;;;;;23.40;44.00;;;;;;5055283;28;19955;-59
2021/12/11 00:14:20;;;;;;;;;;;23.40;44.00;;;;;;5055185;28;20397;-59
2021/12/11 00:16:45;;;;;;;;;;;23.40;44.00;;;;;;5055141;28;19909;-59
2021/12/11 00:19:16;;;;;;;;;;;23.40;44.00;;;;;;5052801;28;19931;-59
2021/12/11 00:21:42;;;;;;;;;;;23.40;44.00;;;;;;5054957;28;19909;-60
2021/12/11 00:24:08;;;;;;;;;;;23.30;44.00;;;;;;5054465;28;19912;-58
2021/12/11 00:26:33;;;;;;;;;;;23.30;44.00;;;;;;5055262;28;19924;-59
2021/12/11 00:28:59;;;;;;;;;;;23.30;44.00;;;;;;5054955;28;20320;-59
2021/12/11 00:31:26;;;;;;;;;;;23.30;44.00;;;;;;5054842;28;20022;-59
2021/12/11 00:33:52;;;;;;;;;;;23.30;44.00;;;;;;5054870;28;19912;-59
2021/12/11 00:36:19;;;;;;;;;;;23.30;44.00;;;;;;5036839;28;19959;-58
2021/12/11 00:38:48;;;;;;;;;;;23.30;44.00;;;;;;5054264;28;20018;-59
2021/12/11 00:41:14;;;;;;;;;;;23.30;44.00;;;;;;5054744;28;19920;-59
2021/12/11 00:43:41;;;;;;;;;;;23.30;44.00;;;;;;5054580;28;19948;-59
2021/12/11 00:46:08;;;;;;;;;;;23.20;43.90;;;;;;5054632;28;19909;-57
2021/12/11 00:48:34;;;;;;;;;;;23.30;43.90;;;;;;5054496;28;19917;-59
2021/12/11 00:50:59;;;;;;;;;;;23.20;43.90;;;;;;5054624;28;19916;-58
2021/12/11 00:53:27;;;;;;;;;;;23.20;43.90;;;;;;5053915;28;20389;-59
2021/12/11 00:55:54;;;;;;;;;;;23.20;43.90;;;;;;5054533;28;19990;-59
2021/12/11 00:58:22;;;;;;;;;;;23.20;43.90;;;;;;5054493;28;19974;-59
2021/12/11 01:00:50;;;;;;;;;;;23.20;43.90;;;;;;5054237;28;19919;-59
2021/12/11 01:03:20;;;;;;;;;;;23.20;43.90;;;;;;5054205;28;20374;-59
2021/12/11 01:05:47;;;;;;;;;;;23.20;43.90;;;;;;5054194;28;20323;-57
2021/12/11 01:08:19;;;;;;;;;;;23.20;43.90;;;;;;5053771;28;19959;-59
2021/12/11 01:10:53;;;;;;;;;;;23.10;43.80;;;;;;5054119;28;20362;-59
2021/12/11 01:13:24;;;;;;;;;;;23.10;43.80;;;;;;5054210;28;19915;-59
2021/12/11 01:15:55;;;;;;;;;;;23.10;43.80;;;;;;5054260;28;20007;-59
2021/12/11 01:18:23;;;;;;;;;;;23.10;43.90;;;;;;5053987;28;19913;-59
2021/12/11 01:21:01;;;;;;;;;;;23.10;43.80;;;;;;5054134;28;19947;-59
2021/12/11 01:24:26;;;;;;;;;;;23.10;43.80;;;;;;5053438;28;20360;-59
2021/12/11 01:26:16;;;;;;;;;;;23.10;43.80;;;;;;5043180;28;19917;-59
2021/12/11 01:28:42;;;;;;;;;;;23.10;43.90;;;;;;5054113;28;20265;-58
2021/12/11 01:31:09;;;;;;;;;;;23.10;43.80;;;;;;5053795;28;20007;-59
2021/12/11 01:33:34;;;;;;;;;;;23.00;43.80;;;;;;5053765;28;19960;-59
2021/12/11 01:36:00;;;;;;;;;;;23.00;43.80;;;;;;5053490;28;20007;-57
2021/12/11 01:38:29;;;;;;;;;;;23.00;43.80;;;;;;5035342;28;19909;-59
2021/12/11 01:41:00;;;;;;;;;;;23.00;43.70;;;;;;5053676;28;19916;-59
2021/12/11 01:43:27;;;;;;;;;;;23.00;43.80;;;;;;5053636;28;19916;-58
2021/12/11 01:45:54;;;;;;;;;;;23.00;43.80;;;;;;5035567;28;19920;-58
2021/12/11 01:48:22;;;;;;;;;;;23.00;43.80;;;;;;5053535;28;19919;-59
2021/12/11 01:50:50;;;;;;;;;;;23.00;43.80;;;;;;5052765;28;19909;-58
2021/12/11 01:53:22;;;;;;;;;;;22.90;43.70;;;;;;5053370;28;19912;-58
2021/12/11 01:55:53;;;;;;;;;;;22.90;43.70;;;;;;5053388;28;19909;-59
2021/12/11 01:58:26;;;;;;;;;;;22.90;43.70;;;;;;5053280;28;19909;-60
2021/12/11 02:00:56;;;;;;;;;;;22.90;43.70;;;;;;5053271;28;19913;-60
2021/12/11 02:03:24;;;;;;;;;;;22.90;43.70;;;;;;5053108;28;19947;-60
2021/12/11 02:05:50;;;;;;;;;;;22.90;43.70;;;;;;5052149;28;19956;-58
2021/12/11 02:08:17;;;;;;;;;;;22.90;43.70;;;;;;5053130;28;19916;-59
2021/12/11 02:10:46;;;;;;;;;;;22.90;43.70;;;;;;5053076;28;19913;-59
2021/12/11 02:13:13;;;;;;;;;;;22.90;43.70;;;;;;5053019;28;19915;-59
2021/12/11 02:15:46;;;;;;;;;;;22.90;43.70;;;;;;5052910;28;19909;-59
2021/12/11 02:18:20;;;;;;;;;;;22.90;43.70;;;;;;5052718;28;19913;-59
2021/12/11 02:20:54;;;;;;;;;;;22.80;43.60;;;;;;5052366;28;19915;-60
2021/12/11 02:23:20;;;;;;;;;;;22.80;43.60;;;;;;5052705;28;20443;-59
2021/12/11 02:25:47;;;;;;;;;;;22.80;43.60;;;;;;5052795;28;19908;-60
2021/12/11 02:28:19;;;;;;;;;;;22.80;43.60;;;;;;5052582;28;19908;-59
2021/12/11 02:30:48;;;;;;;;;;;22.80;43.70;;;;;;5052732;28;19939;-59
2021/12/11 02:33:14;;;;;;;;;;;22.80;43.60;;;;;;5052553;28;19939;-60
2021/12/11 02:35:57;;;;;;;;;;;22.80;43.70;;;;;;5052038;28;19909;-59
2021/12/11 02:38:29;;;;;;;;;;;22.80;43.70;;;;;;5052574;28;19913;-60
2021/12/11 02:41:00;;;;;;;;;;;22.70;43.60;;;;;;5052431;28;19909;-59
2021/12/11 02:43:26;;;;;;;;;;;22.70;43.60;;;;;;5052317;28;19917;-59
2021/12/11 02:45:54;;;;;;;;;;;22.70;43.60;;;;;;5052423;28;19916;-59
2021/12/11 02:48:40;;;;;;;;;;;22.70;43.60;;;;;;5052338;28;19935;-59
2021/12/11 02:51:09;;;;;;;;;;;22.70;43.60;;;;;;5052239;28;19916;-59
2021/12/11 02:53:36;;;;;;;;;;;22.70;43.60;;;;;;5052211;28;19916;-60
2021/12/11 02:56:11;;;;;;;;;;;22.70;43.60;;;;;;5052164;28;19909;-58
2021/12/11 02:58:38;;;;;;;;;;;22.70;43.60;;;;;;5052013;28;19909;-59
2021/12/11 03:01:07;;;;;;;;;;;22.60;43.50;;;;;;5052567;28;19913;-59
2021/12/11 03:03:39;;;;;;;;;;;22.70;43.60;;;;;;5051452;28;19947;-59
2021/12/11 03:06:12;;;;;;;;;;;22.60;43.50;;;;;;5052259;28;19916;-59
2021/12/11 03:08:38;;;;;;;;;;;22.60;43.50;;;;;;5052125;28;19908;-59
2021/12/11 03:11:06;;;;;;;;;;;22.60;43.50;;;;;;5051925;28;20258;-59
2021/12/11 03:13:34;;;;;;;;;;;22.60;43.50;;;;;;5034111;28;19913;-59
2021/12/11 03:16:00;;;;;;;;;;;22.60;43.50;;;;;;5051267;28;19916;-60
2021/12/11 03:18:25;;;;;;;;;;;22.50;43.40;;;;;;5050924;28;19920;-59
2021/12/11 03:20:51;;;;;;;;;;;22.50;43.40;;;;;;5051996;28;19909;-59
2021/12/11 03:23:17;;;;;;;;;;;22.50;43.40;;;;;;5051728;28;19921;-60
2021/12/11 03:25:42;;;;;;;;;;;22.50;43.40;;;;;;5051895;28;19909;-59
2021/12/11 03:28:09;;;;;;;;;;;22.50;43.40;;;;;;5051796;28;19909;-59
2021/12/11 03:30:36;;;;;;;;;;;22.50;43.40;;;;;;5051723;28;19913;-59
2021/12/11 03:33:11;;;;;;;;;;;22.50;43.40;;;;;;5050916;28;20011;-59
2021/12/11 03:35:36;;;;;;;;;;;22.50;43.40;;;;;;5051854;28;20365;-58
2021/12/11 03:38:02;;;;;;;;;;;22.50;43.40;;;;;;5051745;28;20387;-59
2021/12/11 03:40:28;;;;;;;;;;;22.40;43.30;;;;;;5051473;28;19909;-58
2021/12/11 03:42:56;;;;;;;;;;;22.40;43.30;;;;;;5051614;28;19917;-59
2021/12/11 03:45:24;;;;;;;;;;;22.50;43.40;;;;;;5051468;28;19991;-59
2021/12/11 03:47:51;;;;;;;;;;;22.40;43.30;;;;;;5051116;28;19935;-60
2021/12/11 03:50:18;;;;;;;;;;;22.40;43.30;;;;;;5051528;28;19913;-60
2021/12/11 03:52:45;;;;;;;;;;;22.40;43.30;;;;;;5051351;28;20348;-59
2021/12/11 03:55:13;;;;;;;;;;;22.40;43.30;;;;;;5051374;28;19954;-59
2021/12/11 03:57:41;;;;;;;;;;;22.40;43.30;;;;;;5051427;28;19909;-59
2021/12/11 04:00:09;;;;;;;;;;;22.40;43.90;;;;;;5051516;28;19956;-59
2021/12/11 04:02:35;;;;;;;;;;;22.40;43.30;;;;;;5050770;28;19921;-59
2021/12/11 04:05:03;;;;;;;;;;;22.40;43.30;;;;;;5051481;28;19912;-59
2021/12/11 04:07:31;;;;;;;;;;;22.40;43.30;;;;;;5051172;28;19912;-59
2021/12/11 04:09:57;;;;;;;;;;;22.30;43.20;;;;;;5051414;28;19967;-59
2021/12/11 04:12:23;;;;;;;;;;;22.30;43.20;;;;;;5051270;28;20358;-59
2021/12/11 04:14:51;;;;;;;;;;;22.40;43.30;;;;;;5051335;28;19959;-59
2021/12/11 04:17:18;;;;;;;;;;;22.30;43.20;;;;;;5050810;28;19916;-59
2021/12/11 04:19:44;;;;;;;;;;;22.30;43.20;;;;;;5051075;28;19925;-60
2021/12/11 04:22:10;;;;;;;;;;;22.30;43.20;;;;;;5051135;28;19955;-60
2021/12/11 04:24:37;;;;;;;;;;;22.30;43.20;;;;;;5051181;28;19917;-60
2021/12/11 04:27:04;;;;;;;;;;;22.30;43.20;;;;;;5033239;28;19915;-60
2021/12/11 04:29:29;;;;;;;;;;;22.30;43.20;;;;;;5054823;28;19909;-60
2021/12/11 04:31:56;;;;;;;;;;;22.30;43.20;;;;;;5054377;28;19920;-59
2021/12/11 04:34:22;;;;;;;;;;;22.20;43.10;;;;;;5054866;28;19913;-59
2021/12/11 04:36:49;;;;;;;;;;;22.20;43.20;;;;;;5054870;28;19908;-59
2021/12/11 04:39:18;;;;;;;;;;;22.20;43.10;;;;;;5054794;28;20433;-59
2021/12/11 04:41:53;;;;;;;;;;;22.20;43.10;;;;;;5054733;28;19909;-60
2021/12/11 04:44:27;;;;;;;;;;;22.20;43.10;;;;;;5054762;28;19962;-57
2021/12/11 04:46:53;;;;;;;;;;;22.20;43.10;;;;;;5054156;28;19913;-59
2021/12/11 04:49:30;;;;;;;;;;;22.20;43.10;;;;;;5054681;28;19920;-60
2021/12/11 04:52:04;;;;;;;;;;;22.20;43.10;;;;;;5054536;28;19912;-59
2021/12/11 04:57:34;;;;;;;;;;;22.10;43.10;;;;;;5054752;28;19928;-60
2021/12/11 05:05:16;;;;;;;;;;;22.10;43.10;;;;;;5054488;28;19913;-59
2021/12/11 05:08:00;;;;;;;;;;;22.10;43.00;;;;;;5054315;28;19951;-59
2021/12/11 05:10:54;;;;;;;;;;;22.10;43.00;;;;;;5036399;28;19948;-58
2021/12/11 05:13:13;;;;;;;;;;;22.10;43.00;;;;;;5053709;28;20375;-58
2021/12/11 05:15:40;;;;;;;;;;;22.00;43.00;;;;;;5053619;28;20012;-59
2021/12/11 05:18:08;;;;;;;;;;;22.10;43.00;;;;;;5053846;28;19996;-58
2021/12/11 05:20:34;;;;;;;;;;;22.00;43.00;;;;;;5054126;28;19994;-59
2021/12/11 05:23:00;;;;;;;;;;;22.00;43.00;;;;;;5053961;28;20315;-58
2021/12/11 05:25:25;;;;;;;;;;;22.00;42.90;;;;;;5053817;28;19909;-59
2021/12/11 05:27:51;;;;;;;;;;;22.00;43.00;;;;;;5054073;28;20028;-60
2021/12/11 05:30:19;;;;;;;;;;;22.00;43.00;;;;;;5035670;28;19960;-59
2021/12/11 05:32:45;;;;;;;;;;;22.00;43.00;;;;;;5053906;28;19935;-58
2021/12/11 05:35:11;;;;;;;;;;;22.00;43.00;;;;;;5053735;28;19912;-58
2021/12/11 05:37:37;;;;;;;;;;;22.00;42.90;;;;;;5053655;28;19908;-59
2021/12/11 05:40:03;;;;;;;;;;;22.00;42.90;;;;;;5034841;28;19916;-60
2021/12/11 05:42:29;;;;;;;;;;;22.00;43.00;;;;;;5053438;28;19916;-58
2021/12/11 05:44:54;;;;;;;;;;;22.00;42.90;;;;;;5053255;28;19909;-59
2021/12/11 05:47:21;;;;;;;;;;;22.00;42.90;;;;;;5053566;28;19909;-58
2021/12/11 05:49:47;;;;;;;;;;;21.90;42.90;;;;;;5053415;28;19913;-58
2021/12/11 05:52:13;;;;;;;;;;;21.90;42.90;;;;;;5053363;28;20201;-60
2021/12/11 05:54:40;;;;;;;;;;;21.90;42.90;;;;;;5053400;28;19913;-60
2021/12/11 05:57:07;;;;;;;;;;;21.90;42.90;;;;;;5052785;28;19916;-60
2021/12/11 05:59:33;;;;;;;;;;;21.90;42.90;;;;;;5053288;28;19971;-60
2021/12/11 06:02:01;;;;;;;;;;;21.90;42.90;;;;;;5053166;28;19919;-58
2021/12/11 06:04:29;;;;;;;;;;;21.90;42.80;;;;;;5053155;28;19909;-59
2021/12/11 06:06:54;;;;;;;;;;;21.90;42.80;;;;;;5053021;28;19917;-59
2021/12/11 06:09:21;;;;;;;;;;;21.90;42.90;;;;;;5053221;28;20280;-58
2021/12/11 06:11:47;;;;;;;;;;;21.80;43.40;;;;;;5052484;28;19991;-59
2021/12/11 06:14:16;;;;;;;;;;;21.80;42.80;;;;;;5053053;28;19909;-59
2021/12/11 06:16:43;;;;;;;;;;;21.80;42.80;;;;;;5052926;28;19909;-59
2021/12/11 06:19:09;;;;;;;;;;;21.80;42.80;;;;;;5052758;28;20329;-59
2021/12/11 06:21:35;;;;;;;;;;;21.80;42.80;;;;;;5052853;28;19952;-59
2021/12/11 06:24:01;;;;;;;;;;;21.70;42.80;;;;;;5052853;28;19917;-59
2021/12/11 06:26:27;;;;;;;;;;;21.70;42.80;;;;;;5052196;28;20389;-57
2021/12/11 06:28:52;;;;;;;;;;;21.70;42.80;;;;;;5052864;28;19913;-60
2021/12/11 06:31:19;;;;;;;;;;;21.80;42.90;;;;;;5052662;28;19909;-58
2021/12/11 06:33:49;;;;;;;;;;;21.70;42.80;;;;;;5052667;28;19917;-59
2021/12/11 06:36:15;;;;;;;;;;;21.80;42.90;;;;;;5052503;28;19913;-60
2021/12/11 06:38:41;;;;;;;;;;;21.80;42.90;;;;;;5052673;28;19919;-61
2021/12/11 06:41:08;;;;;;;;;;;21.80;43.00;;;;;;5034029;28;20392;-59
2021/12/11 06:43:34;;;;;;;;;;;21.80;43.00;;;;;;5052535;28;19950;-60
2021/12/11 06:45:59;;;;;;;;;;;21.80;43.00;;;;;;5052591;28;19962;-60
2021/12/11 06:48:25;;;;;;;;;;;21.80;43.10;;;;;;5052544;28;19912;-59
2021/12/11 06:50:52;;;;;;;;;;;21.80;43.10;;;;;;5052243;28;20361;-59
2021/12/11 06:53:22;;;;;;;;;;;21.90;43.20;;;;;;5052293;28;19909;-59
2021/12/11 06:55:47;;;;;;;;;;;21.90;43.20;;;;;;5051795;28;19915;-60
2021/12/11 06:58:13;;;;;;;;;;;21.90;43.30;;;;;;5052262;28;19913;-60
2021/12/11 07:00:38;;;;;;;;;;;21.90;43.40;;;;;;5052297;28;20000;-60
2021/12/11 07:03:04;;;;;;;;;;;21.90;43.40;;;;;;5051988;28;20289;-59
2021/12/11 07:05:29;;;;;;;;;;;21.90;43.50;;;;;;5052112;28;19952;-61
2021/12/11 07:07:55;;;;;;;;;;;21.90;43.50;;;;;;5030360;28;19977;-60
2021/12/11 07:10:22;;;;;;;;;;;22.00;43.60;;;;;;5048707;28;19916;-62
2021/12/11 07:12:48;;;;;;;;;;;22.00;43.70;;;;;;5049284;28;19913;-61
2021/12/11 07:15:14;;;;;;;;;;;22.00;43.70;;;;;;5049231;28;20436;-61
2021/12/11 07:17:40;;;;;;;;;;;22.00;43.70;;;;;;5049023;28;20006;-61
2021/12/11 07:20:08;;;;;;;;;;;22.00;43.70;;;;;;5031268;28;19979;-60
2021/12/11 07:22:34;;;;;;;;;;;22.10;43.80;;;;;;5049023;28;19959;-61
2021/12/11 07:25:04;;;;;;;;;;;22.10;43.80;;;;;;5048807;28;20377;-62
2021/12/11 07:27:30;;;;;;;;;;;22.10;43.80;;;;;;5031142;28;20258;-60
2021/12/11 07:29:55;;;;;;;;;;;22.10;43.80;;;;;;5048729;28;20027;-61
2021/12/11 07:32:20;;;;;;;;;;;22.10;43.90;;;;;;5047517;28;20365;-61
2021/12/11 07:34:46;;;;;;;;;;;22.20;43.90;;;;;;5048974;28;19920;-61
2021/12/11 07:37:12;;;;;;;;;;;22.20;43.90;;;;;;5049887;28;19913;-61
2021/12/11 07:39:37;;;;;;;;;;;22.20;43.90;;;;;;5050746;28;19909;-61
2021/12/11 07:42:03;;;;;;;;;;;22.20;44.00;;;;;;5051019;28;20110;-62
2021/12/11 07:44:28;;;;;;;;;;;22.20;43.90;;;;;;5051619;28;19915;-60
2021/12/11 07:46:56;;;;;;;;;;;22.30;44.00;;;;;;5033683;28;19963;-61
2021/12/11 07:49:21;;;;;;;;;;;22.30;44.00;;;;;;5033568;28;19909;-61
2021/12/11 07:51:48;;;;;;;;;;;22.30;44.00;;;;;;5051734;28;19916;-61
2021/12/11 07:54:13;;;;;;;;;;;22.30;44.00;;;;;;5050944;28;19939;-61
2021/12/11 07:56:39;;;;;;;;;;;22.30;44.00;;;;;;5051473;28;19909;-61
2021/12/11 07:59:06;;;;;;;;;;;22.30;43.90;;;;;;5051951;28;19913;-71
2021/12/11 08:01:33;;;;;;;;;;;22.30;44.00;;;;;;5033547;28;19920;-64
2021/12/11 08:04:00;;;;;;;;;;;22.30;44.00;;;;;;5054276;28;19921;-63
2021/12/11 08:06:26;;;;;;;;;;;22.40;44.00;;;;;;5055420;28;19909;-63
2021/12/11 08:08:51;;;;;;;;;;;22.40;44.00;;;;;;5054928;28;19913;-59
2021/12/11 08:11:17;;;;;;;;;;;22.40;44.00;;;;;;5055371;28;19913;-60
2021/12/11 08:13:44;;;;;;;;;;;22.40;44.00;;;;;;5055310;28;20289;-60
2021/12/11 08:16:11;;;;;;;;;;;22.40;44.10;;;;;;5055145;28;19959;-59
2021/12/11 08:18:37;;;;;;;;;;;22.40;44.20;;;;;;5054972;28;20398;-61
2021/12/11 08:21:02;;;;;;;;;;;22.40;44.20;;;;;;5055513;28;19967;-58
2021/12/11 08:23:28;;;;;;;;;;;22.40;44.20;;;;;;5054525;28;19921;-58
2021/12/11 08:25:54;;;;;;;;;;;22.50;44.30;;;;;;5055131;28;20007;-58
2021/12/11 08:28:22;;;;;;;;;;;22.50;44.40;;;;;;5055038;28;19912;-57
2021/12/11 08:30:48;;;;;;;;;;;22.50;44.50;;;;;;5054817;28;19908;-59
2021/12/11 08:33:14;;;;;;;;;;;22.50;44.60;;;;;;5054914;28;19916;-57
2021/12/11 08:35:40;;;;;;;;;;;22.60;44.60;;;;;;5054895;28;19913;-51
2021/12/11 08:38:06;;;;;;;;;;;22.60;44.70;;;;;;5054417;28;20357;-59
2021/12/11 08:40:33;;;;;;;;;;;22.70;44.80;;;;;;5036860;28;19913;-53
2021/12/11 08:43:00;;;;;;;;;;;22.70;44.80;;;;;;5054722;28;19927;-53
2021/12/11 08:45:43;;;;;;;;;;;22.80;45.00;;;;;;5054613;28;20284;-55
2021/12/11 08:48:10;;;;;;;;;;;22.80;44.90;;;;;;5055089;28;19961;-55
2021/12/11 08:50:35;;;;;;;;;;;22.90;44.90;;;;;;5036921;28;20006;-55
2021/12/11 08:53:01;;;;;;;;;;;22.90;44.80;;;;;;5054025;28;19975;-54
2021/12/11 08:55:31;;;;;;;;;;;22.90;44.80;;;;;;5054582;28;19909;-58
2021/12/11 08:57:57;;;;;;;;;;;22.90;44.80;;;;;;5054356;28;19916;-58
2021/12/11 09:00:28;;;;;;;;;;;22.90;44.80;;;;;;5054564;28;20285;-57
2021/12/11 09:02:59;;;;;;;;;;;22.90;44.80;;;;;;5054332;28;20369;-58
2021/12/11 09:05:27;;;;;;;;;;;22.80;44.80;;;;;;5054355;28;20381;-57
2021/12/11 09:07:55;;;;;;;;;;;22.80;44.80;;;;;;5053773;28;19908;-54
2021/12/11 09:10:23;;;;;;;;;;;22.80;44.80;;;;;;5054181;28;19981;-57
2021/12/11 09:12:54;;;;;;;;;;;22.80;44.80;;;;;;5054170;28;19936;-57
2021/12/11 09:15:25;;;;;;;;;;;22.80;44.80;;;;;;5052811;28;19942;-56
2021/12/11 09:18:08;;;;;;;;;;;22.80;44.70;;;;;;5054065;28;19909;-57
2021/12/11 09:20:40;;;;;;;;;;;22.80;44.70;;;;;;5035546;28;20014;-57
2021/12/11 09:23:09;;;;;;;;;;;22.80;44.70;;;;;;5054128;28;19920;-57
2021/12/11 09:25:42;;;;;;;;;;;22.80;44.60;;;;;;5053959;28;19920;-55
2021/12/11 09:28:17;;;;;;;;;;;22.80;44.60;;;;;;5054171;28;20007;-56
2021/12/11 09:30:48;;;;;;;;;;;22.80;44.60;;;;;;5035969;28;20010;-57
2021/12/11 09:33:16;;;;;;;;;;;22.80;44.60;;;;;;5053770;28;19931;-56
2021/12/11 09:35:53;;;;;;;;;;;22.80;44.60;;;;;;5053102;28;20270;-57
2021/12/11 09:38:24;;;;;;;;;;;22.80;44.50;;;;;;5053848;28;19956;-56
2021/12/11 09:40:53;;;;;;;;;;;22.80;44.60;;;;;;5053697;28;19913;-57
2021/12/11 09:43:38;;;;;;;;;;;22.80;44.60;;;;;;5053607;28;19924;-56
2021/12/11 09:46:05;;;;;;;;;;;22.80;44.50;;;;;;5053397;28;19909;-56
2021/12/11 09:48:31;;;;;;;;;;;22.80;44.50;;;;;;5053470;28;19909;-57
2021/12/11 09:51:02;;;;;;;;;;;22.80;44.50;;;;;;5053010;28;20007;-57
2021/12/11 09:53:30;;;;;;;;;;;22.80;44.50;;;;;;5053499;28;19909;-56
2021/12/11 09:55:56;;;;;;;;;;;22.80;44.40;;;;;;5053302;28;20434;-56
2021/12/11 09:58:24;;;;;;;;;;;22.80;44.50;;;;;;5053265;28;19916;-55
2021/12/11 10:00:51;;;;;;;;;;;22.80;44.40;;;;;;5053470;28;19962;-55
2021/12/11 10:03:18;;;;;;;;;;;22.80;44.40;;;;;;5053071;28;19942;-56
2021/12/11 10:05:49;;;;;;;;;;;22.80;45.00;;;;;;5052644;28;20011;-56
2021/12/11 10:10:54;;;;;;;;;;;22.80;44.40;;;;;;5052982;28;19913;-56
2021/12/11 10:13:20;;;;;;;;;;;22.80;44.30;;;;;;5053176;28;19908;-57
2021/12/11 10:15:45;;;;;;;;;;;22.80;44.30;;;;;;5052964;28;20391;-56
2021/12/11 10:18:15;;;;;;;;;;;22.80;44.30;;;;;;5052205;28;20336;-55
2021/12/11 10:20:53;;;;;;;;;;;22.80;44.30;;;;;;5052935;28;20320;-56
2021/12/11 10:23:21;;;;;;;;;;;22.80;44.20;;;;;;5052693;28;19987;-58
2021/12/11 10:25:47;;;;;;;;;;;22.80;44.90;;;;;;5034499;28;20051;-57
2021/12/11 10:28:17;;;;;;;;;;;22.80;44.20;;;;;;5052718;28;20003;-58
2021/12/11 10:30:46;;;;;;;;;;;22.80;44.20;;;;;;5034890;28;19909;-56
2021/12/11 10:33:12;;;;;;;;;;;22.80;44.20;;;;;;5052065;28;19909;-58
2021/12/11 10:35:41;;;;;;;;;;;22.80;44.10;;;;;;5052607;28;19915;-57
2021/12/11 10:38:06;;;;;;;;;;;22.80;44.10;;;;;;5052453;28;19909;-57
2021/12/11 10:40:36;;;;;;;;;;;22.80;44.10;;;;;;5052485;28;19919;-56
2021/12/11 10:43:05;;;;;;;;;;;22.80;44.10;;;;;;5034348;28;20011;-56
2021/12/11 10:45:31;;;;;;;;;;;22.80;44.10;;;;;;5052500;28;19912;-52
2021/12/11 10:47:59;;;;;;;;;;;22.80;44.10;;;;;;5051841;28;19909;-57
2021/12/11 10:50:34;;;;;;;;;;;22.80;44.10;;;;;;5052324;28;20261;-59
2021/12/11 10:53:01;;;;;;;;;;;22.80;44.10;;;;;;5052277;28;19963;-56
2021/12/11 10:55:31;;;;;;;;;;;22.80;44.10;;;;;;5052254;28;19909;-58
2021/12/11 10:57:59;;;;;;;;;;;22.80;44.10;;;;;;5052217;28;19913;-60
2021/12/11 11:00:34;;;;;;;;;;;22.80;44.10;;;;;;5052095;28;19913;-57
2021/12/11 11:02:59;;;;;;;;;;;22.80;44.10;;;;;;5051560;28;20238;-57
2021/12/11 11:05:27;;;;;;;;;;;22.80;44.10;;;;;;5052023;28;19916;-57
2021/12/11 11:07:54;;;;;;;;;;;22.80;44.10;;;;;;5051330;28;21332;-59
2021/12/11 11:10:21;;;;;;;;;;;22.80;44.10;;;;;;5052075;28;19909;-59
2021/12/11 11:12:47;;;;;;;;;;;22.80;44.20;;;;;;5052107;28;20280;-59
2021/12/11 11:15:18;;;;;;;;;;;22.90;44.90;;;;;;5051991;28;19913;-60
2021/12/11 11:17:43;;;;;;;;;;;22.90;44.30;;;;;;5051559;28;19909;-60
2021/12/11 11:20:10;;;;;;;;;;;22.90;44.20;;;;;;5051740;28;19932;-59
2021/12/11 11:22:39;;;;;;;;;;;22.90;44.30;;;;;;5051826;28;20286;-61
2021/12/11 11:25:08;;;;;;;;;;;22.90;44.30;;;;;;5033910;28;19916;-62
2021/12/11 11:27:33;;;;;;;;;;;23.00;44.40;;;;;;5051730;28;19920;-59
2021/12/11 11:29:59;;;;;;;;;;;23.00;44.40;;;;;;5051738;28;19919;-59
2021/12/11 11:32:31;;;;;;;;;;;23.00;44.40;;;;;;5051350;28;20020;-59
2021/12/11 11:35:05;;;;;;;;;;;23.00;44.40;;;;;;5051858;28;19935;-59
2021/12/11 11:37:32;;;;;;;;;;;23.00;44.40;;;;;;5050789;28;20017;-59
2021/12/11 11:39:58;;;;;;;;;;;23.00;44.40;;;;;;5051681;28;19916;-59
2021/12/11 11:42:23;;;;;;;;;;;23.00;44.50;;;;;;5051498;28;20004;-59
2021/12/11 11:44:49;;;;;;;;;;;23.10;44.60;;;;;;5051908;28;20342;-60
2021/12/11 11:47:16;;;;;;;;;;;23.00;45.10;;;;;;5051080;28;20428;-58
2021/12/11 11:49:42;;;;;;;;;;;23.00;44.50;;;;;;5051467;28;19963;-59
2021/12/11 11:52:09;;;;;;;;;;;23.10;44.60;;;;;;5033585;28;19923;-59
2021/12/11 11:54:36;;;;;;;;;;;23.10;44.70;;;;;;5051540;28;19996;-58
2021/12/11 11:57:05;;;;;;;;;;;23.10;44.70;;;;;;5051309;28;19913;-59
2021/12/11 11:59:31;;;;;;;;;;;23.10;44.80;;;;;;5051338;28;19987;-59
2021/12/11 12:02:01;;;;;;;;;;;23.10;44.80;;;;;;5050904;28;20357;-59
2021/12/11 12:04:27;;;;;;;;;;;23.10;44.70;;;;;;5051206;28;19917;-58
2021/12/11 12:06:59;;;;;;;;;;;23.10;44.70;;;;;;5051357;28;20390;-60
2021/12/11 12:09:25;;;;;;;;;;;23.10;44.70;;;;;;5051219;28;19913;-60
2021/12/11 12:11:53;;;;;;;;;;;23.10;44.70;;;;;;5051333;28;19908;-57
2021/12/11 12:14:20;;;;;;;;;;;23.00;44.60;;;;;;5050911;28;20387;-59
2021/12/11 12:16:47;;;;;;;;;;;23.00;44.60;;;;;;5051346;28;19913;-59
2021/12/11 12:19:13;;;;;;;;;;;23.00;44.70;;;;;;5051259;28;19927;-59
2021/12/11 12:21:39;;;;;;;;;;;23.00;44.60;;;;;;5051218;28;19909;-59
2021/12/11 12:24:05;;;;;;;;;;;23.00;44.70;;;;;;5033266;28;19952;-58
2021/12/11 12:26:31;;;;;;;;;;;23.00;44.70;;;;;;5051221;28;20306;-57
2021/12/11 12:28:58;;;;;;;;;;;23.00;44.60;;;;;;5050908;28;19913;-58
2021/12/11 12:31:32;;;;;;;;;;;23.00;44.60;;;;;;5051174;28;20009;-58
2021/12/11 12:33:58;;;;;;;;;;;23.00;44.60;;;;;;5051166;28;19936;-58
2021/12/11 12:36:24;;;;;;;;;;;23.00;44.60;;;;;;5051149;28;19909;-58
2021/12/11 12:38:50;;;;;;;;;;;23.00;44.60;;;;;;5051274;28;19909;-58
2021/12/11 12:41:18;;;;;;;;;;;23.00;44.60;;;;;;5051347;28;20269;-58
2021/12/11 12:46:28;;;;;;;;;;;23.00;44.60;;;;;;5051122;28;19987;-58
2021/12/11 12:48:54;;;;;;;;;;;22.90;44.50;;;;;;5051784;28;19994;-58
2021/12/11 12:51:19;;;;;;;;;;;22.90;45.20;;;;;;5054522;28;20018;-58
2021/12/11 12:53:46;;;;;;;;;;;22.90;44.50;;;;;;5054506;28;19913;-59
2021/12/11 12:56:14;;;;;;;;;;;22.90;44.50;;;;;;5054498;28;19920;-59
2021/12/11 12:58:43;;;;;;;;;;;22.90;44.50;;;;;;5053931;28;20453;-59
2021/12/11 13:01:11;;;;;;;;;;;22.90;44.50;;;;;;5036916;28;20444;-59
2021/12/11 13:03:38;;;;;;;;;;;22.90;44.50;;;;;;5054205;28;19921;-59
2021/12/11 13:06:05;;;;;;;;;;;22.90;44.50;;;;;;5054336;28;19909;-59
2021/12/11 13:08:36;;;;;;;;;;;22.90;44.50;;;;;;5054303;28;19909;-58
2021/12/11 13:11:04;;;;;;;;;;;22.90;44.40;;;;;;5054564;28;19909;-58
2021/12/11 13:13:30;;;;;;;;;;;22.90;44.50;;;;;;5035793;28;19924;-58
2021/12/11 13:15:58;;;;;;;;;;;22.90;44.40;;;;;;5054214;28;20284;-58
2021/12/11 13:18:29;;;;;;;;;;;22.90;44.40;;;;;;5053772;28;20090;-58
2021/12/11 13:21:02;;;;;;;;;;;22.90;44.40;;;;;;5036093;28;19909;-58
2021/12/11 13:23:28;;;;;;;;;;;22.90;44.40;;;;;;5036092;28;20122;-57
2021/12/11 13:25:56;;;;;;;;;;;22.90;44.40;;;;;;5053850;28;19916;-58
2021/12/11 13:28:24;;;;;;;;;;;22.90;44.40;;;;;;5053254;28;20424;-59
2021/12/11 13:30:54;;;;;;;;;;;22.90;44.40;;;;;;5053767;28;19913;-59
2021/12/11 13:33:20;;;;;;;;;;;22.90;44.40;;;;;;5053806;28;20388;-58
2021/12/11 13:35:46;;;;;;;;;;;22.90;44.40;;;;;;5053797;28;20319;-59
2021/12/11 13:38:14;;;;;;;;;;;22.90;44.40;;;;;;5053831;28;20384;-59
2021/12/11 13:40:42;;;;;;;;;;;22.90;44.40;;;;;;5053670;28;19976;-59
2021/12/11 13:43:07;;;;;;;;;;;22.90;44.30;;;;;;5053001;28;19979;-59
2021/12/11 13:45:34;;;;;;;;;;;22.90;44.30;;;;;;5053631;28;20357;-58
2021/12/11 13:48:02;;;;;;;;;;;22.90;44.30;;;;;;5053676;28;19909;-58
2021/12/11 13:50:29;;;;;;;;;;;22.90;44.30;;;;;;5053450;28;20350;-58
2021/12/11 13:52:56;;;;;;;;;;;22.90;44.30;;;;;;5053693;28;19913;-57
2021/12/11 13:55:22;;;;;;;;;;;22.90;44.40;;;;;;5035573;28;20392;-59
2021/12/11 13:57:48;;;;;;;;;;;22.90;44.30;;;;;;5052775;28;19940;-57
2021/12/11 14:00:17;;;;;;;;;;;22.90;44.40;;;;;;5052733;28;20002;-58
2021/12/11 14:02:43;;;;;;;;;;;22.90;44.30;;;;;;5035266;28;19913;-58
2021/12/11 14:05:09;;;;;;;;;;;22.90;44.30;;;;;;5053160;28;19916;-57
2021/12/11 14:07:38;;;;;;;;;;;22.90;44.30;;;;;;5053162;28;20046;-59
2021/12/11 14:10:19;;;;;;;;;;;22.90;44.40;;;;;;5053075;28;19916;-59
2021/12/11 14:12:45;;;;;;;;;;;22.90;44.40;;;;;;5053059;28;20548;-59
2021/12/11 14:15:10;;;;;;;;;;;22.90;44.40;;;;;;5052997;28;20004;-58
2021/12/11 14:17:36;;;;;;;;;;;22.90;44.40;;;;;;5053041;28;19940;-60
2021/12/11 14:20:01;;;;;;;;;;;22.90;44.40;;;;;;5052749;28;19927;-58
2021/12/11 14:22:27;;;;;;;;;;;22.90;44.50;;;;;;5034970;28;20439;-60
2021/12/11 14:24:53;;;;;;;;;;;22.90;44.40;;;;;;5052249;28;19913;-60
2021/12/11 14:27:20;;;;;;;;;;;22.90;44.40;;;;;;5052832;28;19917;-58
2021/12/11 14:29:47;;;;;;;;;;;22.90;44.40;;;;;;5052822;28;19912;-59
2021/12/11 14:32:18;;;;;;;;;;;22.90;44.50;;;;;;5052708;28;19915;-59
2021/12/11 14:34:44;;;;;;;;;;;22.90;44.50;;;;;;5052656;28;20281;-59